Time;durP1;ratioP1;P1;durP2;ratioP2;P2;SDS_P1;SDS_P2;PMS_P1;PMS_P2;Temp;Humidity;BMP_temperature;BMP_pressure;BME280_temperature;BME280_humidity;BME280_pressure;Samples;Min_cycle;Max_cycle;Signal;HPM_P1;HPM_P2
2023/11/09 01:48:44;;;;;;;;;;;;;;;25.89;20.33;98112.28;5025421;28;19932;-90
2023/11/09 01:51:13;;;;;;;;;;;;;;;25.95;20.43;98108.47;4998008;28;20390;-90
2023/11/09 01:53:39;;;;;;;;;;;;;;;26.00;20.51;98104.31;5003862;28;19917;-93
2023/11/09 01:56:05;;;;;;;;;;;;;;;26.01;20.73;98105.91;5007430;28;20020;-89
2023/11/09 01:58:34;;;;;;;;;;;;;;;25.92;20.90;98106.56;4991355;28;19945;-89
2023/11/09 02:01:02;;;;;;;;;;;;;;;25.59;21.14;98107.91;5009342;28;19922;-89
2023/11/09 02:03:28;;;;;;;;;;;;;;;25.57;21.22;98096.31;5016715;28;20122;-89
2023/11/09 02:05:55;;;;;;;;;;;;;;;25.64;20.75;98096.13;5012960;28;19925;-90
2023/11/09 02:08:21;;;;;;;;;;;;;;;25.67;20.98;98097.25;5004347;28;19922;-89
2023/11/09 02:10:47;;;;;;;;;;;;;;;25.67;20.89;98100.06;5016309;28;19921;-90
2023/11/09 02:13:13;;;;;;;;;;;;;;;25.69;20.79;98097.59;5014916;28;19925;-90
2023/11/09 02:15:39;;;;;;;;;;;;;;;25.57;20.91;98103.94;5015253;28;19925;-90
2023/11/09 02:18:05;;;;;;;;;;;;;;;25.60;20.76;98103.06;5004033;28;19976;-90
2023/11/09 02:20:31;;;;;;;;;;;;;;;25.73;20.49;98104.69;5015867;28;19932;-90
2023/11/09 02:22:59;;;;;;;;;;;;;;;25.83;20.08;98105.63;5015367;28;19921;-90
2023/11/09 02:25:25;;;;;;;;;;;;;;;25.95;20.39;98102.81;5014775;28;20403;-90
2023/11/09 02:27:51;;;;;;;;;;;;;;;25.99;19.98;98102.75;5014973;28;20394;-89
2023/11/09 02:30:17;;;;;;;;;;;;;;;25.56;20.61;98102.34;5015551;28;19928;-91
2023/11/09 02:32:43;;;;;;;;;;;;;;;25.35;20.76;98103.69;5015844;28;19932;-91
2023/11/09 02:35:10;;;;;;;;;;;;;;;25.43;21.36;98102.28;5015970;28;19917;-91
2023/11/09 02:37:36;;;;;;;;;;;;;;;25.50;20.54;98098.53;5014920;28;20057;-90
2023/11/09 02:40:04;;;;;;;;;;;;;;;25.55;20.33;98093.16;5014912;28;19922;-90
2023/11/09 02:42:30;;;;;;;;;;;;;;;25.15;21.06;98092.59;5016368;28;19924;-90
2023/11/09 02:44:56;;;;;;;;;;;;;;;25.03;21.25;98090.50;5016507;28;19918;-90
2023/11/09 02:47:22;;;;;;;;;;;;;;;24.94;21.03;98093.13;5017182;28;20441;-91
2023/11/09 02:49:48;;;;;;;;;;;;;;;24.86;21.48;98094.53;5013820;28;19933;-90
2023/11/09 02:52:15;;;;;;;;;;;;;;;25.03;21.13;98090.50;5015718;28;19976;-91
2023/11/09 02:54:41;;;;;;;;;;;;;;;25.10;21.46;98084.69;5015175;28;19964;-91
2023/11/09 02:57:07;;;;;;;;;;;;;;;25.17;20.68;98084.50;5016015;28;19972;-91
2023/11/09 02:59:33;;;;;;;;;;;;;;;25.18;21.00;98086.06;5015635;28;19941;-91
2023/11/09 03:02:01;;;;;;;;;;;;;;;25.14;20.90;98085.38;5016475;28;19971;-91
2023/11/09 03:04:27;;;;;;;;;;;;;;;25.17;20.73;98089.34;5000050;28;20024;-91
2023/11/09 03:06:53;;;;;;;;;;;;;;;25.18;20.96;98080.44;4996014;28;19925;-91
2023/11/09 03:09:19;;;;;;;;;;;;;;;25.32;20.45;98082.13;5011763;28;19936;-90
2023/11/09 03:11:45;;;;;;;;;;;;;;;25.38;20.89;98085.97;5016233;28;19921;-91
2023/11/09 03:14:11;;;;;;;;;;;;;;;25.39;20.53;98082.69;5010467;28;20394;-92
2023/11/09 03:16:38;;;;;;;;;;;;;;;25.54;20.67;98080.31;5015745;28;19933;-91
2023/11/09 03:19:04;;;;;;;;;;;;;;;25.56;20.53;98077.06;5015641;28;20275;-91
2023/11/09 03:21:30;;;;;;;;;;;;;;;25.53;20.43;98081.56;5015626;28;20322;-91
2023/11/09 03:23:56;;;;;;;;;;;;;;;25.61;20.39;98085.75;5014995;28;19995;-91
2023/11/09 03:26:22;;;;;;;;;;;;;;;25.68;20.44;98077.09;5035239;28;19971;-91
2023/11/09 03:28:48;;;;;;;;;;;;;;;25.79;20.02;98076.81;5016041;28;19925;-90
2023/11/09 03:31:14;;;;;;;;;;;;;;;25.77;20.22;98070.81;4997202;28;19928;-91
2023/11/09 03:33:40;;;;;;;;;;;;;;;25.62;20.53;98086.53;5014381;28;20039;-92
2023/11/09 03:36:06;;;;;;;;;;;;;;;25.47;20.51;98079.72;5015403;28;19918;-91
2023/11/09 03:38:32;;;;;;;;;;;;;;;25.58;20.31;98077.41;5014521;28;19922;-91
2023/11/09 03:40:58;;;;;;;;;;;;;;;25.66;20.32;98071.16;4994984;28;19921;-91
2023/11/09 03:43:24;;;;;;;;;;;;;;;25.60;20.22;98072.13;4995544;28;19914;-91
2023/11/09 03:45:50;;;;;;;;;;;;;;;25.36;20.09;98075.16;5008880;28;20283;-91
2023/11/09 03:48:16;;;;;;;;;;;;;;;25.41;20.15;98079.47;5014496;28;19928;-89
2023/11/09 03:50:43;;;;;;;;;;;;;;;25.32;19.97;98079.31;5014448;28;19972;-91
2023/11/09 03:53:09;;;;;;;;;;;;;;;25.10;20.55;98086.72;5013232;28;19925;-91
2023/11/09 03:55:35;;;;;;;;;;;;;;;24.82;20.57;98081.81;5015352;28;19960;-91
2023/11/09 03:58:02;;;;;;;;;;;;;;;24.74;20.98;98078.34;5015497;28;19917;-91
2023/11/09 04:00:28;;;;;;;;;;;;;;;24.68;20.84;98074.50;4999364;28;19922;-90
2023/11/09 04:02:54;;;;;;;;;;;;;;;24.83;20.62;98072.16;4995446;28;20064;-91
2023/11/09 04:05:22;;;;;;;;;;;;;;;25.00;20.49;98074.50;5003640;28;19921;-91
2023/11/09 04:07:48;;;;;;;;;;;;;;;25.15;20.61;98072.13;4997218;28;19976;-91
2023/11/09 04:10:16;;;;;;;;;;;;;;;25.08;20.92;98067.50;5014247;28;19922;-91
2023/11/09 04:12:43;;;;;;;;;;;;;;;25.20;20.31;98072.41;5014924;28;19988;-92
2023/11/09 04:15:09;;;;;;;;;;;;;;;25.27;20.22;98071.41;5014207;28;20263;-92
2023/11/09 04:17:35;;;;;;;;;;;;;;;25.21;20.23;98079.56;5013620;28;20294;-91
2023/11/09 04:51:04;;;;;;;;;;;;;;;24.26;21.39;98050.25;5010461;28;19928;-90
2023/11/09 04:53:31;;;;;;;;;;;;;;;24.44;21.11;98054.22;5003081;28;19921;-90
2023/11/09 04:56:19;;;;;;;;;;;;;;;24.86;20.76;98046.78;5013750;28;20477;-90
2023/11/09 04:58:48;;;;;;;;;;;;;;;24.72;20.85;98045.09;4995460;28;20359;-91
2023/11/09 05:06:48;;;;;;;;;;;;;;;25.05;20.96;98042.28;4999872;28;20318;-92
2023/11/09 05:09:25;;;;;;;;;;;;;;;25.20;20.30;98054.75;5009563;28;20326;-92
2023/11/09 05:11:51;;;;;;;;;;;;;;;24.92;20.98;98044.25;5006615;28;19953;-91
2023/11/09 05:14:17;;;;;;;;;;;;;;;24.78;20.94;98039.78;5012154;28;19922;-91
2023/11/09 05:16:43;;;;;;;;;;;;;;;24.86;20.67;98037.56;5012176;28;20272;-89
2023/11/09 05:19:11;;;;;;;;;;;;;;;24.78;21.14;98034.16;5011536;28;19928;-90
2023/11/09 05:21:39;;;;;;;;;;;;;;;24.87;21.00;98039.16;5012505;28;19983;-90
2023/11/09 05:24:05;;;;;;;;;;;;;;;24.69;21.24;98042.41;5013052;28;19960;-91
2023/11/09 05:26:33;;;;;;;;;;;;;;;24.55;21.53;98042.75;5011994;28;19917;-91
2023/11/09 05:29:00;;;;;;;;;;;;;;;24.58;21.37;98044.66;5011959;28;19925;-92
2023/11/09 05:31:26;;;;;;;;;;;;;;;24.40;21.44;98035.88;5010235;28;20036;-90
2023/11/09 05:33:53;;;;;;;;;;;;;;;24.12;21.51;98033.75;5008498;28;19929;-92
2023/11/09 05:36:21;;;;;;;;;;;;;;;24.36;21.78;98030.38;5007931;28;19918;-89
2023/11/09 05:38:48;;;;;;;;;;;;;;;24.55;21.24;98040.72;4993159;28;20302;-91
2023/11/09 05:41:15;;;;;;;;;;;;;;;24.83;20.84;98032.84;5011117;28;19964;-91
2023/11/09 05:43:41;;;;;;;;;;;;;;;24.48;21.18;98034.50;5011937;28;19967;-92
2023/11/09 05:46:07;;;;;;;;;;;;;;;24.43;21.65;98035.00;5010321;28;19925;-91
2023/11/09 06:10:08;;;;;;;;;;;;;;;23.60;22.69;98036.44;4531499;28;19928;-91
2023/11/09 06:12:36;;;;;;;;;;;;;;;23.73;22.87;98028.97;5016901;28;20268;-91
2023/11/09 06:15:03;;;;;;;;;;;;;;;24.21;22.20;98039.53;5016480;28;19924;-91
2023/11/09 06:17:29;;;;;;;;;;;;;;;24.66;21.55;98030.03;5016828;28;19925;-92
2023/11/09 06:19:58;;;;;;;;;;;;;;;24.31;21.96;98030.09;5019555;28;19917;-92
2023/11/09 06:22:24;;;;;;;;;;;;;;;24.20;22.38;98026.75;5020358;28;19972;-91
2023/11/09 06:24:51;;;;;;;;;;;;;;;24.42;21.91;98027.81;5017833;28;19921;-91
2023/11/09 06:27:17;;;;;;;;;;;;;;;24.01;22.81;98017.13;5016659;28;20018;-92
2023/11/09 06:29:43;;;;;;;;;;;;;;;24.27;22.44;98018.94;5016950;28;19917;-91
2023/11/09 06:32:10;;;;;;;;;;;;;;;24.59;22.10;98018.19;5007692;28;20000;-92
2023/11/09 06:34:36;;;;;;;;;;;;;;;24.60;22.04;98017.72;5000422;28;19974;-92
2023/11/09 06:37:02;;;;;;;;;;;;;;;24.99;21.72;98016.78;5016246;28;19924;-91
2023/11/09 06:39:29;;;;;;;;;;;;;;;25.00;21.80;98017.53;5015172;28;19963;-92
2023/11/09 06:41:55;;;;;;;;;;;;;;;24.79;22.08;98020.91;5001260;28;19972;-92
2023/11/09 06:44:21;;;;;;;;;;;;;;;25.01;22.25;98017.13;4996591;28;19918;-91
2023/11/09 06:46:47;;;;;;;;;;;;;;;25.17;21.97;98010.66;4996901;28;20383;-91
2023/11/09 06:49:14;;;;;;;;;;;;;;;25.20;22.36;98019.00;5006006;28;20012;-92
2023/11/09 06:51:40;;;;;;;;;;;;;;;25.57;21.81;98011.16;5016114;28;20378;-91
2023/11/09 06:54:07;;;;;;;;;;;;;;;25.56;21.64;98006.75;5016369;28;20303;-91
2023/11/09 06:56:34;;;;;;;;;;;;;;;25.56;21.99;97992.72;5016203;28;20417;-91
2023/11/09 06:59:00;;;;;;;;;;;;;;;25.59;21.80;98000.25;5015498;28;19929;-91
2023/11/09 07:01:26;;;;;;;;;;;;;;;25.81;21.70;97996.34;5015371;28;20366;-91
2023/11/09 07:03:53;;;;;;;;;;;;;;;25.99;21.82;97990.19;5015779;28;20752;-90
2023/11/09 07:06:19;;;;;;;;;;;;;;;25.78;21.89;97991.66;5013462;28;19965;-91
2023/11/09 07:08:45;;;;;;;;;;;;;;;25.75;21.88;98002.97;5030975;28;19956;-90
2023/11/09 07:11:11;;;;;;;;;;;;;;;25.89;22.08;98002.56;5015837;28;19967;-90
2023/11/09 07:13:37;;;;;;;;;;;;;;;26.27;21.50;98011.84;5015559;28;20282;-90
2023/11/09 07:16:04;;;;;;;;;;;;;;;26.24;21.42;98006.31;5013963;28;19944;-90
2023/11/09 07:18:30;;;;;;;;;;;;;;;26.56;21.33;98012.50;5015583;28;19918;-90
2023/11/09 07:20:56;;;;;;;;;;;;;;;26.37;21.70;97998.69;5015526;28;19921;-90
2023/11/09 07:23:24;;;;;;;;;;;;;;;26.43;21.74;98005.31;5015384;28;19918;-90
2023/11/09 07:25:53;;;;;;;;;;;;;;;26.62;20.97;98010.69;5015691;28;20202;-90
2023/11/09 07:28:20;;;;;;;;;;;;;;;26.69;21.21;98006.84;5015554;28;19917;-90
2023/11/09 07:30:48;;;;;;;;;;;;;;;26.56;21.59;98008.88;5014651;28;19924;-91
2023/11/09 07:33:14;;;;;;;;;;;;;;;26.68;21.21;98008.88;5015110;28;19917;-90
2023/11/09 07:35:46;;;;;;;;;;;;;;;26.59;21.33;98000.31;5015235;28;19917;-90
2023/11/09 07:50:30;;;;;;;;;;;;;;;27.04;21.41;97999.22;5015067;28;19924;-90
2023/11/09 07:52:56;;;;;;;;;;;;;;;26.94;21.01;97997.56;5015159;28;19924;-90
2023/11/09 07:55:23;;;;;;;;;;;;;;;26.68;20.94;97994.00;5014609;28;19968;-90
2023/11/09 07:57:49;;;;;;;;;;;;;;;26.63;20.73;97994.56;5002525;28;20279;-92
2023/11/09 08:00:16;;;;;;;;;;;;;;;26.20;21.75;97989.56;5014335;28;19918;-90
2023/11/09 08:02:42;;;;;;;;;;;;;;;26.46;21.40;97982.69;4997509;28;19922;-90
2023/11/09 08:05:14;;;;;;;;;;;;;;;26.68;21.34;97977.88;5014051;28;19933;-90
2023/11/09 08:07:41;;;;;;;;;;;;;;;26.57;21.24;97985.91;4994843;28;20371;-90
2023/11/09 08:10:07;;;;;;;;;;;;;;;26.86;20.78;97980.16;4994784;28;20381;-90
2023/11/09 08:12:33;;;;;;;;;;;;;;;27.09;20.77;97968.44;4994775;28;20379;-91
2023/11/09 08:14:59;;;;;;;;;;;;;;;27.21;20.78;97975.28;5005813;28;19921;-91
2023/11/09 08:17:26;;;;;;;;;;;;;;;26.87;20.63;97966.81;5014105;28;19921;-90
2023/11/09 08:19:52;;;;;;;;;;;;;;;27.42;21.02;97975.28;5014010;28;20401;-90
2023/11/09 08:22:19;;;;;;;;;;;;;;;26.74;21.10;97970.44;5014449;28;19917;-90
2023/11/09 08:24:45;;;;;;;;;;;;;;;27.51;20.33;97959.69;5013889;28;19921;-90
2023/11/09 08:27:12;;;;;;;;;;;;;;;27.12;21.05;97967.50;5014074;28;19977;-90
2023/11/09 08:29:38;;;;;;;;;;;;;;;27.37;20.44;97950.53;5014292;28;19925;-90
2023/11/09 08:32:05;;;;;;;;;;;;;;;26.99;20.30;97955.50;4996602;28;19917;-90
2023/11/09 08:34:31;;;;;;;;;;;;;;;27.33;20.71;97949.03;5013827;28;19925;-90
2023/11/09 08:36:58;;;;;;;;;;;;;;;27.63;20.70;97956.81;5013702;28;19925;-90
2023/11/09 08:39:26;;;;;;;;;;;;;;;27.66;20.33;97947.41;5014041;28;19918;-90
2023/11/09 08:41:53;;;;;;;;;;;;;;;27.11;19.73;97954.69;5013925;28;19917;-90
2023/11/09 08:44:20;;;;;;;;;;;;;;;26.95;20.16;97954.84;5013102;28;19954;-90
2023/11/09 08:46:46;;;;;;;;;;;;;;;27.09;19.56;97956.38;5014228;28;20292;-90
2023/11/09 08:49:13;;;;;;;;;;;;;;;27.39;19.85;97953.66;5014356;28;20294;-90
2023/11/09 08:51:39;;;;;;;;;;;;;;;27.98;19.26;97944.09;5014102;28;19921;-91
2023/11/09 08:54:09;;;;;;;;;;;;;;;27.92;19.54;97945.97;5013769;28;19960;-90
2023/11/09 08:56:38;;;;;;;;;;;;;;;27.88;19.36;97945.31;5013992;28;20007;-90
2023/11/09 08:59:05;;;;;;;;;;;;;;;27.65;19.62;97943.00;5013294;28;19917;-90
2023/11/09 09:01:32;;;;;;;;;;;;;;;27.01;19.62;97936.13;5014086;28;19972;-90
2023/11/09 09:03:59;;;;;;;;;;;;;;;27.30;20.00;97938.69;5014003;28;19929;-90
2023/11/09 09:06:25;;;;;;;;;;;;;;;26.57;19.83;97934.44;5013823;28;19925;-91
2023/11/09 09:08:52;;;;;;;;;;;;;;;26.92;19.57;97938.06;5013811;28;19972;-90
2023/11/09 09:11:18;;;;;;;;;;;;;;;27.26;19.48;97932.38;5026431;28;19973;-90
2023/11/09 09:13:44;;;;;;;;;;;;;;;28.04;19.22;97939.47;5029282;28;19967;-90
2023/11/09 09:16:15;;;;;;;;;;;;;;;28.37;17.81;97933.28;5034099;28;19932;-90
2023/11/09 09:18:42;;;;;;;;;;;;;;;28.47;19.69;97926.41;5033793;28;19959;-90
2023/11/09 09:21:08;;;;;;;;;;;;;;;28.15;19.33;97918.47;5033470;28;20019;-90
2023/11/09 09:23:36;;;;;;;;;;;;;;;27.85;19.44;97914.41;5033800;28;20390;-90
2023/11/09 09:26:03;;;;;;;;;;;;;;;27.72;19.12;97916.56;5033190;28;19917;-90
2023/11/09 09:28:29;;;;;;;;;;;;;;;28.25;17.90;97912.41;5033038;28;19929;-90
2023/11/09 09:30:55;;;;;;;;;;;;;;;28.32;18.99;97916.97;5032720;28;20378;-90
2023/11/09 09:33:21;;;;;;;;;;;;;;;28.19;18.90;97908.63;5033160;28;20386;-91
2023/11/09 09:35:47;;;;;;;;;;;;;;;28.77;17.96;97908.59;5016905;28;19922;-90
2023/11/09 09:38:15;;;;;;;;;;;;;;;28.63;18.25;97907.19;5034268;28;20500;-91
2023/11/09 09:40:41;;;;;;;;;;;;;;;29.05;17.60;97907.34;5036393;28;19929;-90
2023/11/09 09:43:08;;;;;;;;;;;;;;;28.06;18.08;97897.44;5037392;28;20329;-90
2023/11/09 09:45:34;;;;;;;;;;;;;;;28.42;18.36;97899.56;5038985;28;19925;-89
2023/11/09 09:48:01;;;;;;;;;;;;;;;28.88;18.44;97891.16;5036965;28;20354;-90
2023/11/09 09:50:29;;;;;;;;;;;;;;;28.88;17.98;97893.97;5036476;28;19921;-90
2023/11/09 09:52:56;;;;;;;;;;;;;;;28.96;18.36;97898.88;5017174;28;19953;-89
2023/11/09 09:55:24;;;;;;;;;;;;;;;29.07;18.22;97889.88;5018849;28;19921;-89
2023/11/09 09:57:50;;;;;;;;;;;;;;;29.80;17.51;97882.06;5019632;28;19925;-89
2023/11/09 10:00:23;;;;;;;;;;;;;;;30.01;17.90;97873.31;5019541;28;19921;-88
2023/11/09 10:03:06;;;;;;;;;;;;;;;30.05;18.11;97871.09;5036152;28;19925;-90
2023/11/09 10:05:40;;;;;;;;;;;;;;;29.87;17.70;97868.34;5036578;28;20284;-89
2023/11/09 10:08:07;;;;;;;;;;;;;;;29.91;17.04;97868.19;5036726;28;19971;-89
2023/11/09 10:10:35;;;;;;;;;;;;;;;30.38;17.58;97873.94;5035814;28;19952;-89
2023/11/09 10:13:02;;;;;;;;;;;;;;;30.13;17.64;97860.19;5036279;28;20394;-89
2023/11/09 10:15:29;;;;;;;;;;;;;;;29.15;17.85;97862.88;5036338;28;19922;-89
2023/11/09 10:17:55;;;;;;;;;;;;;;;29.77;17.35;97863.22;5036253;28;19928;-89
2023/11/09 10:20:22;;;;;;;;;;;;;;;29.72;17.87;97852.50;5035507;28;20336;-89
2023/11/09 10:22:54;;;;;;;;;;;;;;;30.22;17.05;97843.16;5036370;28;19913;-89
2023/11/09 10:25:26;;;;;;;;;;;;;;;30.19;17.03;97841.28;5036276;28;20402;-89
2023/11/09 10:28:07;;;;;;;;;;;;;;;30.44;16.74;97845.69;5036484;28;19924;-90
2023/11/09 10:30:35;;;;;;;;;;;;;;;30.85;16.82;97852.47;5034487;28;19943;-89
2023/11/09 10:33:08;;;;;;;;;;;;;;;30.78;16.72;97848.72;5035943;28;19917;-89
2023/11/09 10:35:35;;;;;;;;;;;;;;;30.85;17.07;97841.91;5036470;28;20405;-89
2023/11/09 10:38:02;;;;;;;;;;;;;;;30.12;16.71;97833.16;5042756;28;20055;-89
2023/11/09 10:40:30;;;;;;;;;;;;;;;30.00;17.39;97828.50;5024503;28;19940;-90
2023/11/09 10:43:05;;;;;;;;;;;;;;;30.16;17.40;97825.25;5035628;28;19921;-89
2023/11/09 10:45:36;;;;;;;;;;;;;;;30.54;16.69;97824.53;5045527;28;19925;-90
2023/11/09 10:48:05;;;;;;;;;;;;;;;31.01;16.92;97818.78;5030802;28;19925;-89
2023/11/09 10:50:32;;;;;;;;;;;;;;;31.29;16.95;97819.28;5016618;28;20012;-89
2023/11/09 10:53:00;;;;;;;;;;;;;;;31.36;17.00;97808.31;5021496;28;19928;-88
2023/11/09 10:55:26;;;;;;;;;;;;;;;31.62;15.87;97816.25;5045626;28;20099;-89
2023/11/09 10:57:52;;;;;;;;;;;;;;;31.71;15.61;97813.28;5051708;28;20392;-89
2023/11/09 11:00:34;;;;;;;;;;;;;;;31.53;15.33;97814.28;5029276;28;19917;-89
2023/11/09 11:03:11;;;;;;;;;;;;;;;31.33;16.52;97819.88;5048787;28;19924;-89
2023/11/09 11:05:40;;;;;;;;;;;;;;;31.58;16.24;97819.28;5032775;28;19917;-88
2023/11/09 11:08:07;;;;;;;;;;;;;;;31.15;17.14;97815.19;5033102;28;19928;-89
2023/11/09 11:10:36;;;;;;;;;;;;;;;30.97;16.43;97818.19;5042453;28;20389;-88
2023/11/09 11:13:05;;;;;;;;;;;;;;;31.01;17.17;97815.97;5051623;28;20391;-88
2023/11/09 11:15:40;;;;;;;;;;;;;;;31.54;16.83;97813.03;5051029;28;20424;-89
2023/11/09 11:18:20;;;;;;;;;;;;;;;31.77;17.20;97814.16;5051256;28;20004;-89
2023/11/09 11:20:54;;;;;;;;;;;;;;;31.85;16.79;97810.41;5047760;28;20356;-89
2023/11/09 11:23:33;;;;;;;;;;;;;;;32.12;15.63;97806.44;5036383;28;20421;-89
2023/11/09 11:26:05;;;;;;;;;;;;;;;31.60;17.35;97810.28;5014783;28;19921;-87
2023/11/09 11:28:31;;;;;;;;;;;;;;;31.93;17.03;97803.03;5041261;28;20007;-89
2023/11/09 11:31:03;;;;;;;;;;;;;;;32.02;15.98;97805.00;5040841;28;19927;-89
2023/11/09 11:33:30;;;;;;;;;;;;;;;32.25;15.65;97801.19;5032735;28;19928;-90
2023/11/09 11:36:00;;;;;;;;;;;;;;;31.86;16.26;97794.94;5040001;28;19924;-90
2023/11/09 11:38:29;;;;;;;;;;;;;;;31.95;15.83;97794.03;5051185;28;20273;-90
2023/11/09 11:41:04;;;;;;;;;;;;;;;31.78;16.44;97796.63;5040148;28;19917;-90
2023/11/09 11:43:37;;;;;;;;;;;;;;;32.01;16.02;97789.25;5031908;28;20389;-90
2023/11/09 11:46:23;;;;;;;;;;;;;;;32.12;16.64;97797.91;5045662;28;19953;-89
2023/11/09 11:48:51;;;;;;;;;;;;;;;32.43;16.97;97792.38;5050361;28;19917;-90
2023/11/09 11:51:18;;;;;;;;;;;;;;;32.53;15.49;97785.31;5055765;28;19953;-90
2023/11/09 11:53:52;;;;;;;;;;;;;;;32.60;15.82;97784.84;5054302;28;20015;-90
2023/11/09 11:56:24;;;;;;;;;;;;;;;32.16;16.02;97772.13;5054701;28;19917;-90
2023/11/09 11:58:55;;;;;;;;;;;;;;;32.02;17.33;97774.53;5054514;28;19917;-90
2023/11/09 12:01:29;;;;;;;;;;;;;;;32.04;16.11;97774.81;5053802;28;19917;-90
2023/11/09 12:03:58;;;;;;;;;;;;;;;31.34;16.58;97776.03;5054314;28;20354;-90
2023/11/09 12:06:25;;;;;;;;;;;;;;;31.33;17.66;97763.13;5054275;28;19917;-90
2023/11/09 12:08:58;;;;;;;;;;;;;;;31.15;17.28;97757.66;5054374;28;19939;-90
2023/11/09 12:11:28;;;;;;;;;;;;;;;31.19;17.25;97755.41;5054293;28;20324;-90
2023/11/09 12:13:56;;;;;;;;;;;;;;;31.32;17.09;97755.88;5054397;28;20015;-90
2023/11/09 12:16:24;;;;;;;;;;;;;;;31.23;17.93;97753.13;5054316;28;20023;-88
2023/11/09 12:18:51;;;;;;;;;;;;;;;31.34;17.51;97756.19;5053350;28;20393;-88
2023/11/09 12:21:17;;;;;;;;;;;;;;;31.57;16.62;97751.66;5048185;28;20023;-88
2023/11/09 12:23:51;;;;;;;;;;;;;;;30.80;16.98;97753.91;5053274;28;19916;-89
2023/11/09 12:26:18;;;;;;;;;;;;;;;31.01;16.62;97752.78;5052133;28;20038;-88
2023/11/09 12:28:44;;;;;;;;;;;;;;;30.79;16.85;97750.28;5038205;28;19924;-89
2023/11/09 12:31:13;;;;;;;;;;;;;;;30.60;17.62;97734.72;5037067;28;19928;-88
2023/11/09 12:33:40;;;;;;;;;;;;;;;30.37;17.48;97746.91;5051636;28;19927;-89
2023/11/09 12:36:06;;;;;;;;;;;;;;;30.81;17.11;97732.81;5049208;28;19981;-88
2023/11/09 12:38:34;;;;;;;;;;;;;;;30.86;17.48;97734.94;5036595;28;19924;-88
2023/11/09 12:41:02;;;;;;;;;;;;;;;30.73;17.32;97733.19;5043635;28;19928;-88
2023/11/09 12:43:32;;;;;;;;;;;;;;;31.27;16.50;97734.63;5054251;28;20434;-88
2023/11/09 12:46:02;;;;;;;;;;;;;;;30.98;17.01;97728.22;5045452;28;19988;-88
2023/11/09 12:48:45;;;;;;;;;;;;;;;31.12;16.81;97718.94;5048856;28;19920;-88
2023/11/09 12:51:12;;;;;;;;;;;;;;;31.19;17.03;97724.19;5056898;28;19966;-88
2023/11/09 12:53:40;;;;;;;;;;;;;;;31.43;16.45;97724.88;5021951;28;19925;-88
2023/11/09 12:56:07;;;;;;;;;;;;;;;31.22;17.06;97717.56;5050955;28;19921;-89
2023/11/09 12:58:40;;;;;;;;;;;;;;;31.18;16.89;97711.31;5053223;28;19964;-88
2023/11/09 13:01:13;;;;;;;;;;;;;;;31.50;16.46;97710.28;5052654;28;20019;-88
2023/11/09 13:03:46;;;;;;;;;;;;;;;30.99;17.57;97705.06;5053509;28;19921;-88
2023/11/09 13:06:15;;;;;;;;;;;;;;;31.15;16.58;97700.94;5033604;28;19917;-89
2023/11/09 13:08:41;;;;;;;;;;;;;;;31.32;16.29;97707.66;5037055;28;19916;-88
2023/11/09 13:11:13;;;;;;;;;;;;;;;31.30;17.01;97698.84;5052805;28;19943;-88
2023/11/09 13:13:57;;;;;;;;;;;;;;;31.54;16.90;97693.03;5055194;28;19974;-88
2023/11/09 13:16:24;;;;;;;;;;;;;;;31.68;16.62;97686.50;5058025;28;19978;-89
2023/11/09 13:18:55;;;;;;;;;;;;;;;31.87;16.42;97684.97;5050308;28;19974;-89
2023/11/09 13:21:23;;;;;;;;;;;;;;;31.54;17.33;97690.19;5057080;28;19920;-89
2023/11/09 13:23:49;;;;;;;;;;;;;;;31.77;16.26;97687.16;5057525;28;20354;-89
2023/11/09 13:26:27;;;;;;;;;;;;;;;31.57;16.75;97687.16;5056993;28;19920;-89
2023/11/09 13:29:06;;;;;;;;;;;;;;;30.82;16.62;97689.78;5057067;28;20503;-89
2023/11/09 13:31:34;;;;;;;;;;;;;;;30.70;17.03;97685.19;5055945;28;20278;-89
2023/11/09 13:34:01;;;;;;;;;;;;;;;30.51;17.01;97681.78;5056858;28;20396;-88
2023/11/09 13:36:42;;;;;;;;;;;;;;;30.52;17.13;97682.56;5059567;28;19920;-88
2023/11/09 13:41:44;;;;;;;;;;;;;;;30.51;16.92;97680.97;5055703;28;19964;-89
2023/11/09 13:44:11;;;;;;;;;;;;;;;30.08;17.01;97680.41;5057558;28;19939;-89
2023/11/09 13:46:41;;;;;;;;;;;;;;;29.85;17.00;97681.22;5056831;28;19979;-89
2023/11/09 13:49:27;;;;;;;;;;;;;;;30.14;17.38;97683.34;5056931;28;19917;-88
2023/11/09 13:59:42;;;;;;;;;;;;;;;30.38;17.07;97661.44;5053623;28;20321;-89
2023/11/09 14:02:18;;;;;;;;;;;;;;;30.58;16.39;97661.53;5056407;28;19920;-88
2023/11/09 14:04:50;;;;;;;;;;;;;;;30.22;16.50;97655.44;5056390;28;20372;-89
2023/11/09 14:07:17;;;;;;;;;;;;;;;29.91;16.72;97661.53;5055709;28;20341;-87
2023/11/09 14:09:43;;;;;;;;;;;;;;;30.18;17.13;97658.44;5055393;28;19920;-89
2023/11/09 14:12:10;;;;;;;;;;;;;;;30.32;16.50;97657.69;5056601;28;19924;-88
2023/11/09 14:14:40;;;;;;;;;;;;;;;30.34;16.49;97660.84;5055920;28;20434;-88
2023/11/09 14:17:16;;;;;;;;;;;;;;;30.25;16.62;97660.13;5043119;28;19932;-88
2023/11/09 14:19:55;;;;;;;;;;;;;;;30.30;16.70;97648.91;5058598;28;19920;-88
2023/11/09 14:22:22;;;;;;;;;;;;;;;30.06;16.76;97651.78;5054883;28;19921;-89
2023/11/09 14:24:52;;;;;;;;;;;;;;;29.62;17.03;97650.84;5070604;28;19931;-88
2023/11/09 14:27:27;;;;;;;;;;;;;;;29.66;16.63;97645.81;5054839;28;20008;-89
2023/11/09 14:29:57;;;;;;;;;;;;;;;29.84;16.66;97642.06;5054244;28;20378;-89
2023/11/09 14:32:26;;;;;;;;;;;;;;;29.93;16.28;97647.66;5054656;28;19921;-88
2023/11/09 14:34:53;;;;;;;;;;;;;;;30.07;16.74;97644.09;5054160;28;19924;-88
2023/11/09 14:37:20;;;;;;;;;;;;;;;30.28;16.24;97644.97;5054542;28;20397;-88
2023/11/09 14:42:32;;;;;;;;;;;;;;;29.61;16.46;97634.38;5053351;28;19982;-88
2023/11/09 14:44:58;;;;;;;;;;;;;;;29.82;16.41;97636.91;5055840;28;19917;-90
2023/11/09 14:47:25;;;;;;;;;;;;;;;30.08;16.27;97637.91;5056082;28;19917;-90
2023/11/09 14:49:52;;;;;;;;;;;;;;;29.97;16.07;97636.94;5054967;28;19927;-88
2023/11/09 14:52:40;;;;;;;;;;;;;;;30.06;15.88;97639.66;5056444;28;19925;-88
2023/11/09 14:55:13;;;;;;;;;;;;;;;30.18;15.51;97644.28;5056761;28;19916;-88
2023/11/09 14:57:40;;;;;;;;;;;;;;;29.82;16.06;97645.41;5063394;28;19963;-88
2023/11/09 15:00:07;;;;;;;;;;;;;;;29.44;16.24;97648.16;5057748;28;20259;-88
2023/11/09 15:02:37;;;;;;;;;;;;;;;29.52;16.91;97643.72;5055664;28;19916;-88
2023/11/09 15:05:07;;;;;;;;;;;;;;;29.29;16.90;97636.75;5055280;28;20348;-88
2023/11/09 15:07:40;;;;;;;;;;;;;;;29.11;16.97;97633.22;5055113;28;19921;-89
2023/11/09 15:10:08;;;;;;;;;;;;;;;28.91;16.47;97628.16;5054951;28;19927;-88
2023/11/09 15:12:37;;;;;;;;;;;;;;;28.83;16.34;97623.31;5055454;28;19917;-87
2023/11/09 15:15:04;;;;;;;;;;;;;;;28.47;16.45;97632.66;5054191;28;19916;-88
2023/11/09 15:17:31;;;;;;;;;;;;;;;28.50;16.67;97623.22;5053898;28;19916;-88
2023/11/09 15:19:57;;;;;;;;;;;;;;;28.53;16.53;97627.94;5055510;28;19917;-88
2023/11/09 15:22:24;;;;;;;;;;;;;;;28.79;16.10;97634.78;5055178;28;19917;-88
2023/11/09 15:24:50;;;;;;;;;;;;;;;28.86;16.05;97630.84;5051010;28;19938;-88
2023/11/09 15:27:18;;;;;;;;;;;;;;;29.07;15.93;97638.28;5030560;28;20461;-86
2023/11/09 15:29:45;;;;;;;;;;;;;;;29.06;15.99;97640.31;5033414;28;19921;-88
2023/11/09 15:32:11;;;;;;;;;;;;;;;28.80;16.20;97630.69;5048499;28;19932;-89
2023/11/09 15:34:43;;;;;;;;;;;;;;;28.85;16.19;97632.09;5051636;28;20290;-89
2023/11/09 15:37:10;;;;;;;;;;;;;;;28.77;16.12;97628.06;5048985;28;19924;-87
2023/11/09 15:39:36;;;;;;;;;;;;;;;28.81;15.84;97623.78;5043541;28;20337;-87
2023/11/09 15:42:03;;;;;;;;;;;;;;;28.95;15.49;97627.97;5044856;28;19952;-87
2023/11/09 15:44:29;;;;;;;;;;;;;;;28.80;16.07;97625.03;5051886;28;19929;-87
2023/11/09 15:46:57;;;;;;;;;;;;;;;28.63;16.16;97626.69;5029370;28;19925;-87
2023/11/09 15:49:27;;;;;;;;;;;;;;;28.85;15.86;97621.56;5049431;28;20400;-87
2023/11/09 15:51:53;;;;;;;;;;;;;;;28.90;15.56;97629.41;5051059;28;19921;-89
2023/11/09 15:54:20;;;;;;;;;;;;;;;28.97;15.81;97634.72;5051583;28;19924;-87
2023/11/09 15:56:46;;;;;;;;;;;;;;;29.03;16.01;97632.03;5049645;28;19924;-87
2023/11/09 15:59:12;;;;;;;;;;;;;;;28.78;16.25;97641.69;5048020;28;19921;-89
2023/11/09 16:01:38;;;;;;;;;;;;;;;28.81;16.05;97642.78;5044139;28;19952;-87
2023/11/09 16:04:04;;;;;;;;;;;;;;;28.78;16.20;97647.34;5046253;28;19928;-87